createdAt,value
2019-03-22T00:00:01.159Z,102622.22
2019-03-22T00:02:33.314Z,102617.66
2019-03-22T00:05:04.792Z,102615.91
2019-03-22T00:07:35.345Z,102611.68
2019-03-22T00:10:06.632Z,102607.03
2019-03-22T00:12:37.254Z,102606.08
2019-03-22T00:15:08.216Z,102606.47
2019-03-22T00:17:38.891Z,102598.77
2019-03-22T00:20:09.622Z,102602.55
2019-03-22T00:22:40.131Z,102600.53
2019-03-22T00:25:10.736Z,102596.05
2019-03-22T00:27:41.298Z,102589.91
2019-03-22T00:30:12.205Z,102594.05
2019-03-22T00:32:42.755Z,102599.69
2019-03-22T00:35:13.344Z,102602.25
2019-03-22T00:37:43.918Z,102600.28
2019-03-22T00:40:16.058Z,102591.82
2019-03-22T00:42:46.633Z,102596.20
2019-03-22T00:45:17.300Z,102582.40
2019-03-22T00:47:47.782Z,102586.37
2019-03-22T00:50:18.426Z,102581.48
2019-03-22T00:52:48.983Z,102573.34
2019-03-22T00:55:19.605Z,102570.40
2019-03-22T00:57:50.088Z,102570.86
2019-03-22T01:00:20.594Z,102573.09
2019-03-22T01:02:51.240Z,102576.85
2019-03-22T01:05:21.850Z,102579.95
2019-03-22T01:07:52.464Z,102556.30
2019-03-22T01:10:22.982Z,102568.05
2019-03-22T01:12:53.501Z,102567.83
2019-03-22T01:15:24.076Z,102574.52
2019-03-22T01:17:54.653Z,102574.75
2019-03-22T01:20:25.195Z,102576.09
2019-03-22T01:22:55.763Z,102580.61
2019-03-22T01:25:26.347Z,102581.95
2019-03-22T01:27:56.999Z,102590.98
2019-03-22T01:30:27.641Z,102589.61
2019-03-22T01:32:58.145Z,102589.48
2019-03-22T01:35:28.612Z,102594.46
2019-03-22T01:37:59.307Z,102596.56
2019-03-22T01:40:29.828Z,102587.38
2019-03-22T01:43:00.310Z,102599.91
2019-03-22T01:45:30.871Z,102597.31
2019-03-22T01:48:01.359Z,102590.27
2019-03-22T01:50:31.993Z,102604.92
2019-03-22T01:53:02.801Z,102601.09
2019-03-22T01:55:33.372Z,102599.61
2019-03-22T01:58:03.971Z,102601.20
2019-03-22T02:00:34.419Z,102595.62
2019-03-22T02:03:05.205Z,102594.42
2019-03-22T02:05:35.722Z,102594.20
2019-03-22T02:08:06.338Z,102590.55
2019-03-22T02:10:36.923Z,102585.16
2019-03-22T02:13:08.824Z,102583.79
2019-03-22T02:15:39.676Z,102591.55
2019-03-22T02:18:10.316Z,102587.10
2019-03-22T02:20:40.910Z,102586.72
2019-03-22T02:23:11.540Z,102579.66
2019-03-22T02:25:42.060Z,102575.98
2019-03-22T02:28:12.635Z,102566.28
2019-03-22T02:30:43.211Z,102564.78
2019-03-22T02:33:13.710Z,102568.09
2019-03-22T02:35:44.175Z,102574.49
2019-03-22T02:38:14.660Z,102583.45
2019-03-22T02:40:45.582Z,102587.41
2019-03-22T02:43:16.085Z,102584.31
2019-03-22T02:45:46.699Z,102586.67
2019-03-22T02:48:17.429Z,102598.09
2019-03-22T02:50:48.010Z,102591.70
2019-03-22T02:53:18.639Z,102591.73
2019-03-22T02:55:49.196Z,102583.32
2019-03-22T02:58:21.368Z,102587.13
2019-03-22T03:00:51.989Z,102587.03
2019-03-22T03:03:22.495Z,102592.19
2019-03-22T03:05:53.000Z,102596.31
2019-03-22T03:08:23.660Z,102599.42
2019-03-22T03:10:54.178Z,102591.66
2019-03-22T03:13:24.735Z,102587.83
2019-03-22T03:15:55.540Z,102597.28
2019-03-22T03:18:27.083Z,102595.61
2019-03-22T03:20:57.625Z,102599.02
2019-03-22T03:23:28.303Z,102592.45
2019-03-22T03:25:58.828Z,102598.37
2019-03-22T03:28:36.796Z,102611.09
2019-03-22T03:31:01.692Z,102616.80
2019-03-22T03:33:32.254Z,102612.36
2019-03-22T03:36:02.749Z,102616.26
2019-03-22T03:38:33.447Z,102615.28
2019-03-22T03:41:04.000Z,102610.64
2019-03-22T03:43:34.476Z,102617.59
2019-03-22T03:46:05.001Z,102619.71
2019-03-22T03:48:35.486Z,102626.17
2019-03-22T03:51:06.085Z,102620.60
2019-03-22T03:53:36.660Z,102616.91
2019-03-22T03:56:07.171Z,102617.33
2019-03-22T03:58:51.750Z,102614.93
2019-03-22T04:01:09.989Z,102621.28
2019-03-22T04:03:40.638Z,102624.98
2019-03-22T04:06:11.220Z,102630.94
2019-03-22T04:08:41.771Z,102635.06
2019-03-22T04:11:12.309Z,102638.48
2019-03-22T04:13:43.472Z,102642.30
2019-03-22T04:16:15.981Z,102645.72
2019-03-22T04:18:48.534Z,102659.20
2019-03-22T04:21:19.914Z,102660.57
2019-03-22T04:23:50.456Z,102665.79
2019-03-22T04:26:20.919Z,102667.63
2019-03-22T04:29:06.070Z,102675.03
2019-03-22T04:31:23.623Z,102678.45
2019-03-22T04:33:54.297Z,102673.23
2019-03-22T04:36:24.835Z,102678.28
2019-03-22T04:38:55.460Z,102681.45
2019-03-22T04:41:26.124Z,102683.39
2019-03-22T04:43:56.687Z,102680.08
2019-03-22T04:46:27.394Z,102682.69
2019-03-22T04:48:58.126Z,102688.02
2019-03-22T04:51:28.671Z,102694.37
2019-03-22T04:53:59.571Z,102701.39
2019-03-22T04:56:30.242Z,102699.52
2019-03-22T04:59:00.929Z,102707.50
2019-03-22T05:01:31.456Z,102706.48
2019-03-22T05:04:02.068Z,102711.13
2019-03-22T05:06:32.683Z,102708.20
2019-03-22T05:09:04.026Z,102712.97
2019-03-22T05:11:34.601Z,102728.84
2019-03-22T05:14:05.320Z,102733.79
2019-03-22T05:16:35.772Z,102728.25
2019-03-22T05:19:06.468Z,102728.95
2019-03-22T05:21:38.143Z,102735.69
2019-03-22T05:24:08.765Z,102737.49
2019-03-22T05:26:39.215Z,102740.24
2019-03-22T05:29:09.711Z,102737.52
2019-03-22T05:31:52.142Z,102732.20
2019-03-22T05:34:22.841Z,102740.03
2019-03-22T05:36:53.333Z,102743.38
2019-03-22T05:39:23.801Z,102747.30
2019-03-22T05:41:54.344Z,102744.58
2019-03-22T05:44:24.962Z,102735.44
2019-03-22T05:46:55.665Z,102740.72
2019-03-22T05:49:26.226Z,102749.03
2019-03-22T05:51:56.878Z,102735.53
2019-03-22T05:54:27.436Z,102744.15
2019-03-22T05:56:58.128Z,102742.88
2019-03-22T05:59:28.877Z,102734.30
2019-03-22T06:01:59.525Z,102729.39
2019-03-22T06:04:30.243Z,102734.92
2019-03-22T06:07:00.816Z,102728.29
2019-03-22T06:09:31.312Z,102729.62
2019-03-22T06:12:04.920Z,102722.17
2019-03-22T06:14:35.621Z,102716.96
2019-03-22T06:17:06.446Z,102715.66
2019-03-22T06:19:37.441Z,102711.73
2019-03-22T06:22:08.161Z,102712.56
2019-03-22T06:24:38.652Z,102715.48
2019-03-22T06:27:09.212Z,102721.95
2019-03-22T06:29:40.830Z,102728.17
2019-03-22T06:32:11.350Z,102732.81
2019-03-22T06:34:41.981Z,102731.91
2019-03-22T06:37:13.302Z,102749.30
2019-03-22T06:39:43.995Z,102750.52
2019-03-22T06:42:14.593Z,102749.22
2019-03-22T06:44:45.148Z,102742.19
2019-03-22T06:47:15.627Z,102737.84
2019-03-22T06:49:46.120Z,102736.63
2019-03-22T06:52:16.732Z,102748.52
2019-03-22T06:54:47.229Z,102744.87
2019-03-22T06:57:17.734Z,102748.41
2019-03-22T06:59:48.284Z,102752.10
2019-03-22T07:02:18.997Z,102756.84
2019-03-22T07:04:49.543Z,102762.58
2019-03-22T07:07:20.061Z,102770.62
2019-03-22T07:09:50.622Z,102773.13
2019-03-22T07:12:21.137Z,102769.83
2019-03-22T07:14:51.687Z,102768.43
2019-03-22T07:17:22.172Z,102776.19
2019-03-22T07:19:52.732Z,102786.77
2019-03-22T07:22:23.271Z,102790.39
2019-03-22T07:24:53.843Z,102787.06
2019-03-22T07:27:24.336Z,102782.93
2019-03-22T07:29:55.078Z,102784.34
2019-03-22T07:32:25.736Z,102781.09
2019-03-22T07:34:57.352Z,102783.61
2019-03-22T07:37:27.864Z,102781.81
2019-03-22T07:39:58.471Z,102780.64
2019-03-22T07:42:28.979Z,102791.95
2019-03-22T07:44:59.614Z,102791.36
2019-03-22T07:47:30.205Z,102793.34
2019-03-22T07:50:00.764Z,102790.25
2019-03-22T07:52:31.486Z,102791.61
2019-03-22T07:55:02.162Z,102795.51
2019-03-22T07:57:32.681Z,102796.78
2019-03-22T08:00:04.977Z,102789.35
2019-03-22T08:02:35.563Z,102793.10
2019-03-22T08:05:06.605Z,102789.11
2019-03-22T08:07:37.249Z,102789.56
2019-03-22T08:10:08.673Z,102789.69
2019-03-22T08:12:39.302Z,102780.30
2019-03-22T08:15:10.035Z,102767.78
2019-03-22T08:17:40.552Z,102765.91
2019-03-22T08:20:11.301Z,102761.86
2019-03-22T08:22:41.801Z,102765.37
2019-03-22T08:25:13.377Z,102764.48
2019-03-22T08:27:43.906Z,102773.50
2019-03-22T08:30:14.494Z,102772.57
2019-03-22T08:32:45.049Z,102779.69
2019-03-22T08:35:15.646Z,102791.72
2019-03-22T08:37:52.604Z,102793.03
2019-03-22T08:40:18.449Z,102796.45
2019-03-22T08:42:49.030Z,102801.04
2019-03-22T08:45:19.892Z,102811.45
2019-03-22T08:47:50.355Z,102798.02
2019-03-22T08:50:21.146Z,102798.09
2019-03-22T08:52:51.595Z,102803.97
2019-03-22T08:55:22.255Z,102806.31
2019-03-22T08:57:52.832Z,102806.22
2019-03-22T09:00:23.351Z,102805.98
2019-03-22T09:02:53.838Z,102809.19
2019-03-22T09:05:24.462Z,102812.59
2019-03-22T09:07:55.012Z,102806.81
2019-03-22T09:10:25.776Z,102792.25
2019-03-22T09:12:56.480Z,102792.12
2019-03-22T09:15:26.953Z,102798.23
2019-03-22T09:17:57.498Z,102802.73
2019-03-22T09:20:28.109Z,102810.67
2019-03-22T09:22:58.560Z,102812.81
2019-03-22T09:25:29.176Z,102812.90
2019-03-22T09:27:59.791Z,102802.09
2019-03-22T09:30:30.813Z,102801.61
2019-03-22T09:33:01.339Z,102806.84
2019-03-22T09:35:31.949Z,102807.07
2019-03-22T09:38:12.342Z,102809.39
2019-03-22T09:40:34.930Z,102812.22
2019-03-22T09:43:05.416Z,102814.66
2019-03-22T09:45:35.997Z,102812.67
2019-03-22T09:48:06.727Z,102803.15
2019-03-22T09:50:37.297Z,102808.12
2019-03-22T09:53:07.702Z,102811.45
2019-03-22T09:55:38.892Z,102807.71
2019-03-22T09:58:09.500Z,102806.50
2019-03-22T10:00:40.072Z,102796.66
2019-03-22T10:03:10.484Z,102802.22
2019-03-22T10:05:41.117Z,102804.89
2019-03-22T10:08:11.669Z,102802.70
2019-03-22T10:10:42.339Z,102803.18
2019-03-22T10:13:12.946Z,102801.35
2019-03-22T10:15:43.577Z,102799.64
2019-03-22T10:18:14.151Z,102801.04
2019-03-22T10:20:44.836Z,102795.56
2019-03-22T10:23:15.249Z,102791.59
2019-03-22T10:25:45.890Z,102792.06
2019-03-22T10:28:16.548Z,102792.63
2019-03-22T10:30:47.156Z,102787.47
2019-03-22T10:33:22.664Z,102790.19
2019-03-22T10:35:50.253Z,102793.69
2019-03-22T10:38:30.904Z,102797.74
2019-03-22T10:40:53.069Z,102795.82
2019-03-22T10:43:23.711Z,102788.12
2019-03-22T10:45:54.355Z,102783.22
2019-03-22T10:48:24.955Z,102780.41
2019-03-22T10:50:55.695Z,102780.84
2019-03-22T10:53:26.373Z,102784.84
2019-03-22T10:55:57.358Z,102779.74
2019-03-22T10:58:27.862Z,102786.84
2019-03-22T11:00:59.326Z,102782.91
2019-03-22T11:03:29.932Z,102779.61
2019-03-22T11:06:00.481Z,102781.41
2019-03-22T11:08:30.973Z,102781.83
2019-03-22T11:11:01.552Z,102778.12
2019-03-22T11:13:33.057Z,102767.20
2019-03-22T11:16:03.562Z,102777.97
2019-03-22T11:18:37.654Z,102779.52
2019-03-22T11:21:06.716Z,102766.30
2019-03-22T11:23:37.344Z,102761.83
2019-03-22T11:26:07.903Z,102767.17
2019-03-22T11:28:38.497Z,102766.17
2019-03-22T11:31:09.056Z,102759.13
2019-03-22T11:33:39.578Z,102765.72
2019-03-22T11:36:10.311Z,102758.56
2019-03-22T11:38:40.914Z,102763.23
2019-03-22T11:41:11.473Z,102761.67
2019-03-22T11:43:41.992Z,102760.28
2019-03-22T11:46:12.622Z,102754.62
2019-03-22T11:48:43.493Z,102751.31
2019-03-22T11:51:14.063Z,102759.28
2019-03-22T11:53:44.576Z,102753.55
2019-03-22T11:56:15.135Z,102754.86
2019-03-22T11:58:45.645Z,102750.08
2019-03-22T12:01:21.307Z,102750.67
2019-03-22T12:03:48.541Z,102749.52
2019-03-22T12:06:19.189Z,102744.41
2019-03-22T12:08:49.807Z,102741.13
2019-03-22T12:11:21.338Z,102748.84
2019-03-22T12:13:51.927Z,102739.34
2019-03-22T12:16:24.257Z,102740.31
2019-03-22T12:18:54.890Z,102736.84
2019-03-22T12:21:25.425Z,102744.26
2019-03-22T12:23:56.001Z,102734.73
2019-03-22T12:26:27.992Z,102735.13
2019-03-22T12:28:59.502Z,102737.47
2019-03-22T12:31:31.055Z,102734.09
2019-03-22T12:34:01.561Z,102738.31
2019-03-22T12:36:32.058Z,102731.91
2019-03-22T12:39:02.633Z,102738.61
2019-03-22T12:41:33.338Z,102742.36
2019-03-22T12:44:03.983Z,102736.14
2019-03-22T12:46:35.573Z,102733.53
2019-03-22T12:49:06.059Z,102738.77
2019-03-22T12:51:36.549Z,102737.12
2019-03-22T12:54:07.125Z,102740.25
2019-03-22T12:56:37.753Z,102739.84
2019-03-22T12:59:08.331Z,102736.27
2019-03-22T13:01:38.851Z,102740.75
2019-03-22T13:04:09.366Z,102734.16
2019-03-22T13:06:39.981Z,102731.78
2019-03-22T13:09:10.515Z,102732.48
2019-03-22T13:11:41.167Z,102737.63
2019-03-22T13:14:11.676Z,102733.86
2019-03-22T13:16:42.286Z,102738.77
2019-03-22T13:19:12.732Z,102735.08
2019-03-22T13:21:43.460Z,102737.84
2019-03-22T13:24:14.039Z,102736.38
2019-03-22T13:26:44.596Z,102736.67
2019-03-22T13:29:15.243Z,102731.84
2019-03-22T13:31:45.735Z,102728.89
2019-03-22T13:34:16.168Z,102730.75
2019-03-22T13:36:46.803Z,102733.59
2019-03-22T13:39:17.320Z,102729.42
2019-03-22T13:41:47.831Z,102723.92
2019-03-22T13:44:18.273Z,102719.70
2019-03-22T13:46:49.987Z,102717.92
2019-03-22T13:49:21.780Z,102714.16
2019-03-22T13:51:52.413Z,102709.56
2019-03-22T13:54:24.325Z,102712.42
2019-03-22T13:56:54.933Z,102713.10
2019-03-22T13:59:25.371Z,102710.45
2019-03-22T14:01:56.096Z,102712.49
2019-03-22T14:04:26.563Z,102707.59
2019-03-22T14:06:57.035Z,102709.88
2019-03-22T14:09:27.585Z,102707.85
2019-03-22T14:12:00.245Z,102703.77
2019-03-22T14:14:30.791Z,102699.47
2019-03-22T14:17:01.343Z,102697.53
2019-03-22T14:19:31.857Z,102691.38
2019-03-22T14:22:02.396Z,102686.30
2019-03-22T14:24:32.913Z,102688.17
2019-03-22T14:27:03.397Z,102694.77
2019-03-22T14:29:33.839Z,102693.88
2019-03-22T14:32:04.411Z,102689.26
2019-03-22T14:34:34.847Z,102687.86
2019-03-22T14:37:05.399Z,102682.84
2019-03-22T14:39:35.920Z,102683.59
2019-03-22T14:42:06.398Z,102673.80
2019-03-22T14:44:36.928Z,102675.77
2019-03-22T14:47:07.426Z,102677.48
2019-03-22T14:49:39.004Z,102678.48
2019-03-22T14:52:09.482Z,102673.97
2019-03-22T14:54:40.065Z,102665.50
2019-03-22T14:57:11.526Z,102670.33
2019-03-22T14:59:42.061Z,102668.30
2019-03-22T15:02:12.661Z,102665.08
2019-03-22T15:04:43.249Z,102668.50
2019-03-22T15:07:19.488Z,102663.08
2019-03-22T15:09:46.367Z,102662.59
2019-03-22T15:12:17.656Z,102658.28
2019-03-22T15:15:01.127Z,102658.54
2019-03-22T15:17:35.740Z,102665.63
2019-03-22T15:20:24.261Z,102658.77
2019-03-22T15:23:08.387Z,102660.47
2019-03-22T15:25:56.896Z,102660.95
2019-03-22T15:28:34.598Z,102654.09
2019-03-22T15:31:09.194Z,102654.23
2019-03-22T15:36:37.212Z,102652.27
2019-03-22T15:39:12.784Z,102658.03
2019-03-22T15:41:43.437Z,102658.33
2019-03-22T15:44:14.212Z,102659.65
2019-03-22T15:46:44.811Z,102662.67
2019-03-22T15:49:15.369Z,102660.44
2019-03-22T15:51:46.174Z,102652.66
2019-03-22T15:54:16.749Z,102655.28
2019-03-22T15:56:47.251Z,102655.71
2019-03-22T15:59:17.800Z,102652.17
2019-03-22T16:01:48.244Z,102653.70
2019-03-22T16:04:18.894Z,102650.42
2019-03-22T16:06:49.414Z,102649.51
2019-03-22T16:09:19.919Z,102653.75
2019-03-22T16:11:50.415Z,102647.27
2019-03-22T16:14:21.050Z,102649.98
2019-03-22T16:16:51.568Z,102648.92
2019-03-22T16:19:22.058Z,102645.73
2019-03-22T16:21:52.578Z,102649.05
2019-03-22T16:24:23.150Z,102644.55
2019-03-22T16:26:53.733Z,102646.08
2019-03-22T16:29:24.288Z,102638.12
2019-03-22T16:31:54.817Z,102631.96
2019-03-22T16:34:25.360Z,102629.25
2019-03-22T16:36:55.802Z,102621.91
2019-03-22T16:39:26.403Z,102625.66
2019-03-22T16:41:57.687Z,102628.77
2019-03-22T16:44:28.308Z,102631.88
2019-03-22T16:46:58.735Z,102634.58
2019-03-22T16:49:29.216Z,102633.27
2019-03-22T16:51:59.670Z,102622.21
2019-03-22T16:54:30.230Z,102627.98
2019-03-22T16:57:01.054Z,102625.78
2019-03-22T16:59:31.611Z,102622.07
2019-03-22T17:02:02.153Z,102621.80
2019-03-22T17:04:32.768Z,102626.80
2019-03-22T17:07:03.312Z,102631.39
2019-03-22T17:09:33.869Z,102629.11
2019-03-22T17:12:04.378Z,102627.75
2019-03-22T17:14:34.929Z,102625.48
2019-03-22T17:17:06.461Z,102623.59
2019-03-22T17:19:37.032Z,102623.90
2019-03-22T17:22:07.682Z,102617.84
2019-03-22T17:24:38.330Z,102626.13
2019-03-22T17:27:09.373Z,102625.61
2019-03-22T17:29:41.080Z,102618.30
2019-03-22T17:32:11.550Z,102619.42
2019-03-22T17:34:42.281Z,102618.74
2019-03-22T17:37:12.719Z,102622.55
2019-03-22T17:39:43.263Z,102630.08
2019-03-22T17:42:13.774Z,102624.62
2019-03-22T17:44:44.388Z,102626.59
2019-03-22T17:47:14.813Z,102624.08
2019-03-22T17:49:48.538Z,102622.34
2019-03-22T17:52:18.048Z,102622.98
2019-03-22T17:54:48.642Z,102625.57
2019-03-22T17:57:19.195Z,102625.18
2019-03-22T17:59:50.709Z,102623.80
2019-03-22T18:02:21.271Z,102626.33
2019-03-22T18:04:51.877Z,102628.97
2019-03-22T18:07:22.475Z,102626.67
2019-03-22T18:09:53.742Z,102627.09
2019-03-22T18:12:24.357Z,102624.80
2019-03-22T18:14:54.982Z,102630.02
2019-03-22T18:17:25.453Z,102628.02
2019-03-22T18:19:56.109Z,102636.01
2019-03-22T18:22:26.703Z,102632.00
2019-03-22T18:24:58.355Z,102631.59
2019-03-22T18:27:28.878Z,102629.50
2019-03-22T18:30:01.040Z,102622.15
2019-03-22T18:32:31.628Z,102622.15
2019-03-22T18:35:03.342Z,102619.25
2019-03-22T18:37:33.934Z,102614.61
2019-03-22T18:40:06.340Z,102611.41
2019-03-22T18:42:36.795Z,102609.91
2019-03-22T18:45:11.946Z,102603.23
2019-03-22T18:47:43.549Z,102604.16
2019-03-22T18:50:14.888Z,102606.78
2019-03-22T18:52:45.430Z,102599.84
2019-03-22T18:55:15.903Z,102601.16
2019-03-22T18:57:47.499Z,102594.81
2019-03-22T19:00:18.641Z,102589.16
2019-03-22T19:02:49.175Z,102583.54
2019-03-22T19:05:19.654Z,102593.70
2019-03-22T19:07:50.260Z,102591.09
2019-03-22T19:10:20.983Z,102591.19
2019-03-22T19:12:51.507Z,102592.88
2019-03-22T19:15:22.004Z,102592.88
2019-03-22T19:17:52.587Z,102586.34
2019-03-22T19:20:23.092Z,102586.97
2019-03-22T19:22:53.636Z,102577.30
2019-03-22T19:25:24.344Z,102576.51
2019-03-22T19:27:54.863Z,102577.09
2019-03-22T19:30:25.419Z,102573.99
2019-03-22T19:32:55.923Z,102567.31
2019-03-22T19:35:26.976Z,102570.45
2019-03-22T19:37:57.589Z,102565.91
2019-03-22T19:40:28.101Z,102568.91
2019-03-22T19:42:58.567Z,102570.63
2019-03-22T19:45:29.210Z,102561.48
2019-03-22T19:47:59.749Z,102558.04
2019-03-22T19:50:30.425Z,102551.30
2019-03-22T19:53:00.960Z,102549.45
2019-03-22T19:55:31.474Z,102545.72
2019-03-22T19:58:02.041Z,102548.03
2019-03-22T20:00:32.639Z,102542.80
2019-03-22T20:03:03.182Z,102541.29
2019-03-22T20:05:35.451Z,102537.97
2019-03-22T20:08:05.905Z,102531.03
2019-03-22T20:10:36.465Z,102534.95
2019-03-22T20:13:06.910Z,102532.83
2019-03-22T20:15:37.415Z,102535.05
2019-03-22T20:18:07.949Z,102530.43
2019-03-22T20:20:38.571Z,102532.71
2019-03-22T20:23:09.037Z,102531.73
2019-03-22T20:25:39.755Z,102534.45
2019-03-22T20:28:10.440Z,102525.88
2019-03-22T20:30:41.037Z,102530.70
2019-03-22T20:33:11.581Z,102520.94
2019-03-22T20:35:42.132Z,102526.97
2019-03-22T20:38:12.652Z,102526.24
2019-03-22T20:40:43.140Z,102524.63
2019-03-22T20:43:13.657Z,102515.95
2019-03-22T20:45:44.128Z,102513.86
2019-03-22T20:48:15.654Z,102513.77
2019-03-22T20:50:46.211Z,102515.66
2019-03-22T20:53:16.738Z,102511.25
2019-03-22T20:55:47.353Z,102509.60
2019-03-22T20:58:18.022Z,102512.85
2019-03-22T21:00:48.575Z,102509.41
2019-03-22T21:03:19.247Z,102506.01
2019-03-22T21:05:49.805Z,102500.25
2019-03-22T21:08:20.333Z,102508.81
2019-03-22T21:10:50.877Z,102502.17
2019-03-22T21:13:21.478Z,102496.52
2019-03-22T21:15:52.031Z,102500.34
2019-03-22T21:18:22.565Z,102500.16
2019-03-22T21:20:53.055Z,102496.03
2019-03-22T21:23:23.686Z,102491.28
2019-03-22T21:25:54.326Z,102492.92
2019-03-22T21:28:24.871Z,102492.58
2019-03-22T21:30:55.598Z,102494.41
2019-03-22T21:33:26.023Z,102492.01
2019-03-22T21:35:56.644Z,102492.41
2019-03-22T21:38:28.322Z,102494.05
2019-03-22T21:40:58.818Z,102502.08
2019-03-22T21:43:29.355Z,102503.05
2019-03-22T21:45:59.837Z,102500.63
2019-03-22T21:48:30.412Z,102499.44
2019-03-22T21:51:02.055Z,102498.22
2019-03-22T21:53:32.575Z,102500.84
2019-03-22T21:56:03.059Z,102499.53
2019-03-22T21:58:33.595Z,102496.20
2019-03-22T22:01:16.180Z,102492.67
2019-03-22T22:03:46.626Z,102484.43
2019-03-22T22:06:17.121Z,102494.51
2019-03-22T22:08:50.206Z,102487.53
2019-03-22T22:11:37.452Z,102485.92
2019-03-22T22:14:07.895Z,102480.38
2019-03-22T22:16:38.382Z,102483.85
2019-03-22T22:19:09.012Z,102471.80
2019-03-22T22:21:39.550Z,102473.80
2019-03-22T22:24:10.065Z,102474.20
2019-03-22T22:26:40.549Z,102470.27
2019-03-22T22:29:11.119Z,102467.97
2019-03-22T22:31:41.645Z,102467.36
2019-03-22T22:34:12.115Z,102462.73
2019-03-22T22:36:42.633Z,102456.09
2019-03-22T22:39:17.825Z,102457.01
2019-03-22T22:41:48.364Z,102461.45
2019-03-22T22:44:18.826Z,102455.33
2019-03-22T22:46:49.368Z,102450.78
2019-03-22T22:49:19.816Z,102454.19
2019-03-22T22:51:50.292Z,102456.75
2019-03-22T22:54:20.810Z,102459.22
2019-03-22T22:56:52.351Z,102455.28
2019-03-22T22:59:22.881Z,102461.60
2019-03-22T23:01:53.369Z,102444.94
2019-03-22T23:04:23.889Z,102447.14
2019-03-22T23:06:54.360Z,102449.63
2019-03-22T23:09:24.825Z,102451.70
2019-03-22T23:11:55.369Z,102447.55
2019-03-22T23:14:27.420Z,102444.20
2019-03-22T23:16:57.901Z,102438.97
2019-03-22T23:19:28.436Z,102430.52
2019-03-22T23:21:58.917Z,102431.09
2019-03-22T23:24:29.426Z,102423.34
2019-03-22T23:27:00.172Z,102422.89
2019-03-22T23:29:30.970Z,102418.02
2019-03-22T23:32:01.509Z,102409.14
2019-03-22T23:34:32.099Z,102405.80
2019-03-22T23:37:02.673Z,102405.89
2019-03-22T23:39:33.231Z,102402.03
2019-03-22T23:42:03.783Z,102402.54
2019-03-22T23:44:34.350Z,102398.78
2019-03-22T23:47:04.907Z,102400.73
2019-03-22T23:49:35.359Z,102400.73
2019-03-22T23:52:05.839Z,102399.64
2019-03-22T23:54:36.378Z,102394.80
2019-03-22T23:57:06.929Z,102400.21
2019-03-22T23:59:37.520Z,102392.77
